Terminal Aerodrome Forecast
Issued by NWS

Home | Current Version | Previous Version | Graphics & Text | Print | Product List | Glossary On
Versions: 1 2 3 4 5 6 7 8 9 10 11 12
725
FTUS43 KBIS 271139
TAFDIK
TAF
KDIK 271139Z 2712/2812 22007KT P6SM VCTS BKN080CB OVC110
     FM271500 22007KT P6SM SCT070
     FM271800 24012KT P6SM SKC
     FM280300 16007KT P6SM SCT250=

USA.gov is the U.S. government's official web portal to all federal, state and local government web resources and services.